Arnold, Missouri
Current Conditions -  °F | °C
As of 9:53 AM on Friday 31 Oct 2014 (Local Time) from KCPS Reporting Station
Overcast Overcast  
Wind Chill: 32°   Ceiling: 4900
Heat Index: 42°   Visibility: 10mi
Dew Point: 27°   Wind: 25mph
Humidity: 55%   Direction: 350°N
Pressure: 30.26"   Gusts: 36mph
Location:  38.42°N, 90.37°W
Report Text: KCPS 311453Z 35022G31KT 10SM OVC049 06/M03 A3026 RMK AO2 PK WND 34033/1443 SLP248 T00561028 53034
Loading
Personal Weather Stations






























Interactive Weather Map
Tropical Storm Tracking
New forecast layout! Learn more

10-Day Weather Forecast

Advertisements
Track Severe Weather on mobile